sensor_id;sensor_type;location;lat;lon;timestamp;P1;durP1;ratioP1;P2;durP2;ratioP2
19095;SDS011;9680;52.520;13.332;2024-01-10T00:02:26;53.83;;;16.10;;
19095;SDS011;9680;52.520;13.332;2024-01-10T00:05:02;47.27;;;13.90;;
19095;SDS011;9680;52.520;13.332;2024-01-10T00:07:41;47.90;;;14.43;;
19095;SDS011;9680;52.520;13.332;2024-01-10T00:10:08;48.07;;;15.40;;
19095;SDS011;9680;52.520;13.332;2024-01-10T00:12:35;54.03;;;16.33;;
19095;SDS011;9680;52.520;13.332;2024-01-10T00:15:02;53.60;;;15.37;;
19095;SDS011;9680;52.520;13.332;2024-01-10T00:17:35;51.73;;;15.23;;
19095;SDS011;9680;52.520;13.332;2024-01-10T00:20:04;49.10;;;14.80;;
19095;SDS011;9680;52.520;13.332;2024-01-10T00:22:36;59.60;;;17.00;;
19095;SDS011;9680;52.520;13.332;2024-01-10T00:25:17;63.53;;;16.50;;
19095;SDS011;9680;52.520;13.332;2024-01-10T00:27:46;55.83;;;16.47;;
19095;SDS011;9680;52.520;13.332;2024-01-10T00:30:13;65.33;;;15.43;;
19095;SDS011;9680;52.520;13.332;2024-01-10T00:32:41;51.20;;;16.63;;
19095;SDS011;9680;52.520;13.332;2024-01-10T00:35:08;67.33;;;18.60;;
19095;SDS011;9680;52.520;13.332;2024-01-10T00:37:36;65.23;;;16.93;;
19095;SDS011;9680;52.520;13.332;2024-01-10T00:40:03;57.20;;;16.07;;
19095;SDS011;9680;52.520;13.332;2024-01-10T00:42:31;56.37;;;16.53;;
19095;SDS011;9680;52.520;13.332;2024-01-10T00:44:58;61.47;;;17.63;;
19095;SDS011;9680;52.520;13.332;2024-01-10T00:47:24;71.20;;;20.03;;
19095;SDS011;9680;52.520;13.332;2024-01-10T00:49:53;64.33;;;16.10;;
19095;SDS011;9680;52.520;13.332;2024-01-10T00:52:20;61.20;;;16.40;;
19095;SDS011;9680;52.520;13.332;2024-01-10T00:54:50;56.97;;;16.47;;
19095;SDS011;9680;52.520;13.332;2024-01-10T00:57:16;55.77;;;15.83;;
19095;SDS011;9680;52.520;13.332;2024-01-10T00:59:43;53.70;;;16.53;;
19095;SDS011;9680;52.520;13.332;2024-01-10T01:02:10;56.27;;;17.13;;
19095;SDS011;9680;52.520;13.332;2024-01-10T01:04:36;62.60;;;17.40;;
19095;SDS011;9680;52.520;13.332;2024-01-10T01:07:05;62.07;;;17.97;;
19095;SDS011;9680;52.520;13.332;2024-01-10T01:09:31;61.83;;;16.80;;
19095;SDS011;9680;52.520;13.332;2024-01-10T01:11:58;72.13;;;18.17;;
19095;SDS011;9680;52.520;13.332;2024-01-10T01:14:25;54.97;;;17.03;;
19095;SDS011;9680;52.520;13.332;2024-01-10T01:16:52;59.23;;;16.57;;
19095;SDS011;9680;52.520;13.332;2024-01-10T01:19:18;59.63;;;16.47;;
19095;SDS011;9680;52.520;13.332;2024-01-10T01:21:45;62.80;;;16.90;;
19095;SDS011;9680;52.520;13.332;2024-01-10T01:24:13;55.03;;;16.43;;
19095;SDS011;9680;52.520;13.332;2024-01-10T01:26:40;56.93;;;17.00;;
19095;SDS011;9680;52.520;13.332;2024-01-10T01:29:07;59.70;;;15.83;;
19095;SDS011;9680;52.520;13.332;2024-01-10T01:31:34;51.87;;;15.27;;
19095;SDS011;9680;52.520;13.332;2024-01-10T01:34:00;56.83;;;15.80;;
19095;SDS011;9680;52.520;13.332;2024-01-10T01:36:27;57.20;;;17.13;;
19095;SDS011;9680;52.520;13.332;2024-01-10T01:38:54;59.33;;;17.20;;
19095;SDS011;9680;52.520;13.332;2024-01-10T01:41:22;61.03;;;15.57;;
19095;SDS011;9680;52.520;13.332;2024-01-10T01:43:49;54.10;;;15.40;;
19095;SDS011;9680;52.520;13.332;2024-01-10T01:46:15;55.47;;;16.17;;
19095;SDS011;9680;52.520;13.332;2024-01-10T01:48:42;51.97;;;15.27;;
19095;SDS011;9680;52.520;13.332;2024-01-10T01:51:10;58.40;;;15.30;;
19095;SDS011;9680;52.520;13.332;2024-01-10T01:53:39;52.80;;;15.97;;
19095;SDS011;9680;52.520;13.332;2024-01-10T01:56:07;58.87;;;14.83;;
19095;SDS011;9680;52.520;13.332;2024-01-10T01:58:36;57.27;;;16.37;;
19095;SDS011;9680;52.520;13.332;2024-01-10T02:01:03;49.43;;;15.03;;
19095;SDS011;9680;52.520;13.332;2024-01-10T02:03:31;59.70;;;15.97;;
19095;SDS011;9680;52.520;13.332;2024-01-10T02:05:58;64.97;;;15.73;;
19095;SDS011;9680;52.520;13.332;2024-01-10T02:08:28;55.53;;;15.67;;
19095;SDS011;9680;52.520;13.332;2024-01-10T02:10:55;54.33;;;16.87;;
19095;SDS011;9680;52.520;13.332;2024-01-10T02:13:22;54.57;;;16.03;;
19095;SDS011;9680;52.520;13.332;2024-01-10T02:15:50;62.00;;;16.83;;
19095;SDS011;9680;52.520;13.332;2024-01-10T02:18:18;55.57;;;16.70;;
19095;SDS011;9680;52.520;13.332;2024-01-10T02:20:44;49.80;;;15.87;;
19095;SDS011;9680;52.520;13.332;2024-01-10T02:23:12;60.77;;;16.17;;
19095;SDS011;9680;52.520;13.332;2024-01-10T02:25:40;52.07;;;15.80;;
19095;SDS011;9680;52.520;13.332;2024-01-10T02:28:07;48.33;;;16.53;;
19095;SDS011;9680;52.520;13.332;2024-01-10T02:30:34;59.73;;;15.33;;
19095;SDS011;9680;52.520;13.332;2024-01-10T02:33:01;48.60;;;14.47;;
19095;SDS011;9680;52.520;13.332;2024-01-10T02:35:28;52.93;;;14.63;;
19095;SDS011;9680;52.520;13.332;2024-01-10T02:37:58;52.53;;;14.60;;
19095;SDS011;9680;52.520;13.332;2024-01-10T02:40:25;58.20;;;15.30;;
19095;SDS011;9680;52.520;13.332;2024-01-10T02:42:53;56.43;;;15.47;;
19095;SDS011;9680;52.520;13.332;2024-01-10T02:45:19;51.07;;;16.47;;
19095;SDS011;9680;52.520;13.332;2024-01-10T02:47:46;55.23;;;15.17;;
19095;SDS011;9680;52.520;13.332;2024-01-10T02:50:13;50.77;;;15.73;;
19095;SDS011;9680;52.520;13.332;2024-01-10T02:52:40;55.87;;;15.43;;
19095;SDS011;9680;52.520;13.332;2024-01-10T02:55:06;55.47;;;14.97;;
19095;SDS011;9680;52.520;13.332;2024-01-10T02:57:33;54.47;;;14.10;;
19095;SDS011;9680;52.520;13.332;2024-01-10T03:00:01;61.87;;;15.50;;
19095;SDS011;9680;52.520;13.332;2024-01-10T03:02:29;55.13;;;14.37;;
19095;SDS011;9680;52.520;13.332;2024-01-10T03:04:56;50.63;;;14.30;;
19095;SDS011;9680;52.520;13.332;2024-01-10T03:07:22;59.13;;;13.93;;
19095;SDS011;9680;52.520;13.332;2024-01-10T03:09:50;55.73;;;14.37;;
19095;SDS011;9680;52.520;13.332;2024-01-10T03:12:16;49.87;;;12.63;;
19095;SDS011;9680;52.520;13.332;2024-01-10T03:14:43;51.10;;;15.03;;
19095;SDS011;9680;52.520;13.332;2024-01-10T03:17:11;46.50;;;14.40;;
19095;SDS011;9680;52.520;13.332;2024-01-10T03:19:38;58.63;;;16.33;;
19095;SDS011;9680;52.520;13.332;2024-01-10T03:22:08;52.77;;;14.47;;
19095;SDS011;9680;52.520;13.332;2024-01-10T03:24:35;56.67;;;14.63;;
19095;SDS011;9680;52.520;13.332;2024-01-10T03:27:02;55.63;;;14.70;;
19095;SDS011;9680;52.520;13.332;2024-01-10T03:29:29;58.47;;;14.57;;
19095;SDS011;9680;52.520;13.332;2024-01-10T03:31:56;51.83;;;14.47;;
19095;SDS011;9680;52.520;13.332;2024-01-10T03:34:24;43.07;;;13.03;;
19095;SDS011;9680;52.520;13.332;2024-01-10T03:36:51;53.13;;;14.60;;
19095;SDS011;9680;52.520;13.332;2024-01-10T03:39:18;51.57;;;14.93;;
19095;SDS011;9680;52.520;13.332;2024-01-10T03:41:45;46.33;;;13.73;;
19095;SDS011;9680;52.520;13.332;2024-01-10T03:44:12;48.00;;;14.93;;
19095;SDS011;9680;52.520;13.332;2024-01-10T03:46:39;52.90;;;14.43;;
19095;SDS011;9680;52.520;13.332;2024-01-10T03:49:06;54.87;;;15.00;;
19095;SDS011;9680;52.520;13.332;2024-01-10T03:51:34;48.87;;;14.13;;
19095;SDS011;9680;52.520;13.332;2024-01-10T03:54:01;56.00;;;16.23;;
19095;SDS011;9680;52.520;13.332;2024-01-10T03:56:28;56.83;;;13.57;;
19095;SDS011;9680;52.520;13.332;2024-01-10T03:58:55;42.73;;;13.40;;
19095;SDS011;9680;52.520;13.332;2024-01-10T04:01:22;45.93;;;13.33;;
19095;SDS011;9680;52.520;13.332;2024-01-10T04:03:49;53.40;;;15.20;;
19095;SDS011;9680;52.520;13.332;2024-01-10T04:06:16;51.87;;;14.00;;
19095;SDS011;9680;52.520;13.332;2024-01-10T04:08:44;47.77;;;14.13;;
19095;SDS011;9680;52.520;13.332;2024-01-10T04:11:11;39.93;;;13.00;;
19095;SDS011;9680;52.520;13.332;2024-01-10T04:13:37;44.30;;;13.40;;
19095;SDS011;9680;52.520;13.332;2024-01-10T04:16:04;49.70;;;14.00;;
19095;SDS011;9680;52.520;13.332;2024-01-10T04:18:31;58.53;;;14.87;;
19095;SDS011;9680;52.520;13.332;2024-01-10T04:20:58;53.83;;;14.30;;
19095;SDS011;9680;52.520;13.332;2024-01-10T04:23:25;53.87;;;14.27;;
19095;SDS011;9680;52.520;13.332;2024-01-10T04:25:53;55.60;;;15.07;;
19095;SDS011;9680;52.520;13.332;2024-01-10T04:28:20;47.17;;;14.37;;
19095;SDS011;9680;52.520;13.332;2024-01-10T04:30:47;52.30;;;14.70;;
19095;SDS011;9680;52.520;13.332;2024-01-10T04:33:13;45.27;;;14.00;;
19095;SDS011;9680;52.520;13.332;2024-01-10T04:35:40;54.17;;;13.70;;
19095;SDS011;9680;52.520;13.332;2024-01-10T04:38:07;54.37;;;13.90;;
19095;SDS011;9680;52.520;13.332;2024-01-10T04:40:34;65.17;;;15.93;;
19095;SDS011;9680;52.520;13.332;2024-01-10T04:43:02;46.43;;;13.20;;
19095;SDS011;9680;52.520;13.332;2024-01-10T04:45:28;54.53;;;14.53;;
19095;SDS011;9680;52.520;13.332;2024-01-10T04:47:55;47.13;;;14.90;;
19095;SDS011;9680;52.520;13.332;2024-01-10T04:50:22;53.90;;;13.57;;
19095;SDS011;9680;52.520;13.332;2024-01-10T04:52:48;56.27;;;16.80;;
19095;SDS011;9680;52.520;13.332;2024-01-10T04:55:15;64.73;;;16.10;;
19095;SDS011;9680;52.520;13.332;2024-01-10T04:57:42;50.53;;;14.73;;
19095;SDS011;9680;52.520;13.332;2024-01-10T05:00:10;54.57;;;15.17;;
19095;SDS011;9680;52.520;13.332;2024-01-10T05:02:38;54.27;;;15.57;;
19095;SDS011;9680;52.520;13.332;2024-01-10T05:05:05;57.20;;;15.67;;
19095;SDS011;9680;52.520;13.332;2024-01-10T05:07:32;56.70;;;16.30;;
19095;SDS011;9680;52.520;13.332;2024-01-10T05:09:59;59.17;;;15.50;;
19095;SDS011;9680;52.520;13.332;2024-01-10T05:12:25;56.73;;;15.77;;
19095;SDS011;9680;52.520;13.332;2024-01-10T05:14:52;46.90;;;15.33;;
19095;SDS011;9680;52.520;13.332;2024-01-10T05:17:21;49.20;;;14.83;;
19095;SDS011;9680;52.520;13.332;2024-01-10T05:19:47;54.20;;;15.97;;
19095;SDS011;9680;52.520;13.332;2024-01-10T05:22:14;53.67;;;15.80;;
19095;SDS011;9680;52.520;13.332;2024-01-10T05:24:41;56.80;;;15.60;;
19095;SDS011;9680;52.520;13.332;2024-01-10T05:27:08;45.47;;;13.63;;
19095;SDS011;9680;52.520;13.332;2024-01-10T05:29:35;42.23;;;14.13;;
19095;SDS011;9680;52.520;13.332;2024-01-10T05:32:03;56.63;;;15.10;;
19095;SDS011;9680;52.520;13.332;2024-01-10T05:34:31;56.73;;;16.47;;
19095;SDS011;9680;52.520;13.332;2024-01-10T05:36:58;50.87;;;14.17;;
19095;SDS011;9680;52.520;13.332;2024-01-10T05:39:24;51.27;;;14.13;;
19095;SDS011;9680;52.520;13.332;2024-01-10T05:41:51;53.13;;;13.90;;
19095;SDS011;9680;52.520;13.332;2024-01-10T05:44:18;54.40;;;16.03;;
19095;SDS011;9680;52.520;13.332;2024-01-10T05:46:44;52.17;;;15.53;;
19095;SDS011;9680;52.520;13.332;2024-01-10T05:49:12;81.93;;;21.17;;
19095;SDS011;9680;52.520;13.332;2024-01-10T05:51:41;43.60;;;14.37;;
19095;SDS011;9680;52.520;13.332;2024-01-10T05:54:07;49.27;;;15.37;;
19095;SDS011;9680;52.520;13.332;2024-01-10T05:56:34;49.90;;;14.83;;
19095;SDS011;9680;52.520;13.332;2024-01-10T05:59:01;50.20;;;15.00;;
19095;SDS011;9680;52.520;13.332;2024-01-10T06:01:28;59.27;;;16.30;;
19095;SDS011;9680;52.520;13.332;2024-01-10T06:03:55;57.43;;;14.77;;
19095;SDS011;9680;52.520;13.332;2024-01-10T06:06:21;60.77;;;16.00;;
19095;SDS011;9680;52.520;13.332;2024-01-10T06:08:52;49.87;;;14.40;;
19095;SDS011;9680;52.520;13.332;2024-01-10T06:11:20;53.33;;;15.50;;
19095;SDS011;9680;52.520;13.332;2024-01-10T06:13:47;57.97;;;17.07;;
19095;SDS011;9680;52.520;13.332;2024-01-10T06:16:14;56.97;;;17.13;;
19095;SDS011;9680;52.520;13.332;2024-01-10T06:18:41;55.57;;;15.87;;
19095;SDS011;9680;52.520;13.332;2024-01-10T06:21:08;50.23;;;14.93;;
19095;SDS011;9680;52.520;13.332;2024-01-10T06:23:36;56.93;;;14.63;;
19095;SDS011;9680;52.520;13.332;2024-01-10T06:26:04;53.97;;;15.27;;
19095;SDS011;9680;52.520;13.332;2024-01-10T06:28:31;51.13;;;14.30;;
19095;SDS011;9680;52.520;13.332;2024-01-10T06:30:58;50.40;;;13.83;;
19095;SDS011;9680;52.520;13.332;2024-01-10T06:33:25;43.67;;;13.77;;
19095;SDS011;9680;52.520;13.332;2024-01-10T06:35:51;55.80;;;15.03;;
19095;SDS011;9680;52.520;13.332;2024-01-10T06:38:19;55.57;;;16.07;;
19095;SDS011;9680;52.520;13.332;2024-01-10T06:40:47;61.40;;;16.27;;
19095;SDS011;9680;52.520;13.332;2024-01-10T06:43:17;63.10;;;15.93;;
19095;SDS011;9680;52.520;13.332;2024-01-10T06:45:43;52.70;;;15.50;;
19095;SDS011;9680;52.520;13.332;2024-01-10T06:48:10;66.20;;;15.33;;
19095;SDS011;9680;52.520;13.332;2024-01-10T06:50:37;47.17;;;13.27;;
19095;SDS011;9680;52.520;13.332;2024-01-10T06:53:04;54.30;;;14.17;;
19095;SDS011;9680;52.520;13.332;2024-01-10T06:55:31;50.67;;;14.97;;
19095;SDS011;9680;52.520;13.332;2024-01-10T06:57:58;55.33;;;14.87;;
19095;SDS011;9680;52.520;13.332;2024-01-10T07:00:26;49.07;;;14.13;;
19095;SDS011;9680;52.520;13.332;2024-01-10T07:02:52;56.13;;;16.43;;
19095;SDS011;9680;52.520;13.332;2024-01-10T07:05:19;50.17;;;14.90;;
19095;SDS011;9680;52.520;13.332;2024-01-10T07:07:46;60.63;;;16.73;;
19095;SDS011;9680;52.520;13.332;2024-01-10T07:10:14;56.40;;;15.80;;
19095;SDS011;9680;52.520;13.332;2024-01-10T07:12:41;52.23;;;15.60;;
19095;SDS011;9680;52.520;13.332;2024-01-10T07:15:08;58.87;;;16.03;;
19095;SDS011;9680;52.520;13.332;2024-01-10T07:17:37;57.67;;;16.50;;
19095;SDS011;9680;52.520;13.332;2024-01-10T07:20:04;54.63;;;16.23;;
19095;SDS011;9680;52.520;13.332;2024-01-10T07:22:33;60.93;;;17.10;;
19095;SDS011;9680;52.520;13.332;2024-01-10T07:25:00;70.30;;;17.43;;
19095;SDS011;9680;52.520;13.332;2024-01-10T07:27:27;53.40;;;15.83;;
19095;SDS011;9680;52.520;13.332;2024-01-10T07:29:54;58.73;;;17.27;;
19095;SDS011;9680;52.520;13.332;2024-01-10T07:32:21;65.30;;;15.93;;
19095;SDS011;9680;52.520;13.332;2024-01-10T07:34:49;57.70;;;14.93;;
19095;SDS011;9680;52.520;13.332;2024-01-10T07:37:16;61.27;;;17.10;;
19095;SDS011;9680;52.520;13.332;2024-01-10T07:39:46;63.37;;;16.40;;
19095;SDS011;9680;52.520;13.332;2024-01-10T07:42:12;69.93;;;18.03;;
19095;SDS011;9680;52.520;13.332;2024-01-10T07:44:39;57.70;;;16.20;;
19095;SDS011;9680;52.520;13.332;2024-01-10T07:47:06;64.40;;;17.40;;
19095;SDS011;9680;52.520;13.332;2024-01-10T07:49:32;57.87;;;16.17;;
19095;SDS011;9680;52.520;13.332;2024-01-10T07:52:02;66.67;;;17.37;;
19095;SDS011;9680;52.520;13.332;2024-01-10T07:54:30;60.80;;;16.73;;
19095;SDS011;9680;52.520;13.332;2024-01-10T07:56:57;60.03;;;14.67;;
19095;SDS011;9680;52.520;13.332;2024-01-10T07:59:24;66.47;;;18.17;;
19095;SDS011;9680;52.520;13.332;2024-01-10T08:01:55;56.83;;;16.47;;
19095;SDS011;9680;52.520;13.332;2024-01-10T08:04:24;51.57;;;15.53;;
19095;SDS011;9680;52.520;13.332;2024-01-10T08:06:51;57.17;;;16.37;;
19095;SDS011;9680;52.520;13.332;2024-01-10T08:09:19;63.23;;;16.20;;
19095;SDS011;9680;52.520;13.332;2024-01-10T08:11:46;56.43;;;15.57;;
19095;SDS011;9680;52.520;13.332;2024-01-10T08:14:12;64.40;;;16.47;;
19095;SDS011;9680;52.520;13.332;2024-01-10T08:16:40;61.50;;;18.10;;
19095;SDS011;9680;52.520;13.332;2024-01-10T08:19:07;62.73;;;15.87;;
19095;SDS011;9680;52.520;13.332;2024-01-10T08:21:33;59.50;;;16.73;;
19095;SDS011;9680;52.520;13.332;2024-01-10T08:24:01;61.67;;;17.27;;
19095;SDS011;9680;52.520;13.332;2024-01-10T08:26:30;61.90;;;16.43;;
19095;SDS011;9680;52.520;13.332;2024-01-10T08:28:57;56.63;;;16.13;;
19095;SDS011;9680;52.520;13.332;2024-01-10T08:31:23;53.20;;;16.93;;
19095;SDS011;9680;52.520;13.332;2024-01-10T08:33:52;55.83;;;16.37;;
19095;SDS011;9680;52.520;13.332;2024-01-10T08:36:19;60.33;;;15.93;;
19095;SDS011;9680;52.520;13.332;2024-01-10T08:38:45;55.97;;;16.43;;
19095;SDS011;9680;52.520;13.332;2024-01-10T08:41:13;57.33;;;17.00;;
19095;SDS011;9680;52.520;13.332;2024-01-10T08:43:42;59.57;;;16.33;;
19095;SDS011;9680;52.520;13.332;2024-01-10T08:46:08;60.00;;;16.80;;
19095;SDS011;9680;52.520;13.332;2024-01-10T08:48:35;61.43;;;17.77;;
19095;SDS011;9680;52.520;13.332;2024-01-10T08:51:02;62.67;;;16.57;;
19095;SDS011;9680;52.520;13.332;2024-01-10T08:53:29;55.57;;;17.50;;
19095;SDS011;9680;52.520;13.332;2024-01-10T08:55:55;57.70;;;16.47;;
19095;SDS011;9680;52.520;13.332;2024-01-10T08:58:22;62.53;;;16.63;;
19095;SDS011;9680;52.520;13.332;2024-01-10T09:00:50;51.73;;;16.17;;
19095;SDS011;9680;52.520;13.332;2024-01-10T09:03:17;56.37;;;16.13;;
19095;SDS011;9680;52.520;13.332;2024-01-10T09:05:43;58.77;;;15.47;;
19095;SDS011;9680;52.520;13.332;2024-01-10T09:08:10;53.40;;;16.07;;
19095;SDS011;9680;52.520;13.332;2024-01-10T09:10:36;49.63;;;15.87;;
19095;SDS011;9680;52.520;13.332;2024-01-10T09:13:03;53.20;;;16.23;;
19095;SDS011;9680;52.520;13.332;2024-01-10T09:15:30;48.67;;;15.23;;
19095;SDS011;9680;52.520;13.332;2024-01-10T09:17:59;49.73;;;15.50;;
19095;SDS011;9680;52.520;13.332;2024-01-10T09:20:25;49.60;;;14.50;;
19095;SDS011;9680;52.520;13.332;2024-01-10T09:22:52;67.10;;;17.37;;
19095;SDS011;9680;52.520;13.332;2024-01-10T09:25:19;64.23;;;18.53;;
19095;SDS011;9680;52.520;13.332;2024-01-10T09:27:46;53.87;;;16.93;;
19095;SDS011;9680;52.520;13.332;2024-01-10T09:30:13;54.73;;;15.60;;
19095;SDS011;9680;52.520;13.332;2024-01-10T09:32:43;58.10;;;16.43;;
19095;SDS011;9680;52.520;13.332;2024-01-10T09:35:11;53.60;;;15.57;;
19095;SDS011;9680;52.520;13.332;2024-01-10T09:37:38;53.67;;;16.63;;
19095;SDS011;9680;52.520;13.332;2024-01-10T09:40:05;51.00;;;16.40;;
19095;SDS011;9680;52.520;13.332;2024-01-10T09:42:33;49.53;;;15.93;;
19095;SDS011;9680;52.520;13.332;2024-01-10T09:45:03;61.40;;;15.40;;
19095;SDS011;9680;52.520;13.332;2024-01-10T09:47:31;51.20;;;15.83;;
19095;SDS011;9680;52.520;13.332;2024-01-10T09:49:59;55.37;;;15.07;;
19095;SDS011;9680;52.520;13.332;2024-01-10T09:52:28;56.93;;;15.50;;
19095;SDS011;9680;52.520;13.332;2024-01-10T09:55:00;46.13;;;14.77;;
19095;SDS011;9680;52.520;13.332;2024-01-10T09:57:27;47.10;;;14.57;;
19095;SDS011;9680;52.520;13.332;2024-01-10T09:59:56;46.10;;;14.83;;
19095;SDS011;9680;52.520;13.332;2024-01-10T10:02:23;48.17;;;14.70;;
19095;SDS011;9680;52.520;13.332;2024-01-10T10:04:52;50.37;;;14.73;;
19095;SDS011;9680;52.520;13.332;2024-01-10T10:07:23;53.23;;;13.47;;
19095;SDS011;9680;52.520;13.332;2024-01-10T10:09:51;49.27;;;14.67;;
19095;SDS011;9680;52.520;13.332;2024-01-10T10:12:18;48.77;;;13.73;;
19095;SDS011;9680;52.520;13.332;2024-01-10T10:14:45;44.80;;;13.77;;
19095;SDS011;9680;52.520;13.332;2024-01-10T10:17:15;54.77;;;15.20;;
19095;SDS011;9680;52.520;13.332;2024-01-10T10:19:42;50.10;;;14.07;;
19095;SDS011;9680;52.520;13.332;2024-01-10T10:22:09;53.13;;;15.53;;
19095;SDS011;9680;52.520;13.332;2024-01-10T10:24:37;47.77;;;15.13;;
19095;SDS011;9680;52.520;13.332;2024-01-10T10:27:08;43.77;;;14.40;;
19095;SDS011;9680;52.520;13.332;2024-01-10T10:29:37;56.83;;;15.73;;
19095;SDS011;9680;52.520;13.332;2024-01-10T10:32:05;44.63;;;14.67;;
19095;SDS011;9680;52.520;13.332;2024-01-10T10:34:33;50.30;;;14.97;;
19095;SDS011;9680;52.520;13.332;2024-01-10T10:37:00;43.33;;;13.10;;
19095;SDS011;9680;52.520;13.332;2024-01-10T10:39:27;48.57;;;14.60;;
19095;SDS011;9680;52.520;13.332;2024-01-10T10:41:53;51.70;;;14.73;;
19095;SDS011;9680;52.520;13.332;2024-01-10T10:44:24;53.43;;;15.30;;
19095;SDS011;9680;52.520;13.332;2024-01-10T10:46:52;46.50;;;14.83;;
19095;SDS011;9680;52.520;13.332;2024-01-10T10:49:22;52.40;;;15.60;;
19095;SDS011;9680;52.520;13.332;2024-01-10T10:51:55;47.43;;;14.17;;
19095;SDS011;9680;52.520;13.332;2024-01-10T10:54:28;51.53;;;15.07;;
19095;SDS011;9680;52.520;13.332;2024-01-10T10:56:55;51.43;;;14.63;;
19095;SDS011;9680;52.520;13.332;2024-01-10T10:59:26;42.53;;;13.50;;
19095;SDS011;9680;52.520;13.332;2024-01-10T11:01:54;47.87;;;14.23;;
19095;SDS011;9680;52.520;13.332;2024-01-10T11:04:22;47.47;;;14.93;;
19095;SDS011;9680;52.520;13.332;2024-01-10T11:06:49;39.70;;;13.13;;
19095;SDS011;9680;52.520;13.332;2024-01-10T11:09:16;44.43;;;13.40;;
19095;SDS011;9680;52.520;13.332;2024-01-10T11:11:51;43.13;;;13.13;;
19095;SDS011;9680;52.520;13.332;2024-01-10T11:14:36;41.93;;;12.43;;
19095;SDS011;9680;52.520;13.332;2024-01-10T11:17:24;44.20;;;13.73;;
19095;SDS011;9680;52.520;13.332;2024-01-10T11:20:07;55.17;;;13.77;;
19095;SDS011;9680;52.520;13.332;2024-01-10T11:22:48;47.93;;;13.13;;
19095;SDS011;9680;52.520;13.332;2024-01-10T11:25:36;47.47;;;13.20;;
19095;SDS011;9680;52.520;13.332;2024-01-10T11:28:04;48.57;;;14.37;;
19095;SDS011;9680;52.520;13.332;2024-01-10T11:30:35;50.90;;;14.57;;
19095;SDS011;9680;52.520;13.332;2024-01-10T11:33:17;51.20;;;14.50;;
19095;SDS011;9680;52.520;13.332;2024-01-10T11:38:32;44.57;;;13.93;;
19095;SDS011;9680;52.520;13.332;2024-01-10T11:40:59;48.07;;;14.60;;
19095;SDS011;9680;52.520;13.332;2024-01-10T11:43:27;48.03;;;14.20;;
19095;SDS011;9680;52.520;13.332;2024-01-10T11:45:56;43.70;;;13.93;;
19095;SDS011;9680;52.520;13.332;2024-01-10T11:48:26;42.57;;;13.20;;
19095;SDS011;9680;52.520;13.332;2024-01-10T11:50:53;53.57;;;11.97;;
19095;SDS011;9680;52.520;13.332;2024-01-10T11:53:39;44.90;;;12.97;;
19095;SDS011;9680;52.520;13.332;2024-01-10T11:56:10;43.97;;;13.20;;
19095;SDS011;9680;52.520;13.332;2024-01-10T11:59:00;41.90;;;12.13;;
19095;SDS011;9680;52.520;13.332;2024-01-10T12:01:30;39.60;;;12.87;;
19095;SDS011;9680;52.520;13.332;2024-01-10T12:03:57;37.97;;;12.73;;
19095;SDS011;9680;52.520;13.332;2024-01-10T12:06:25;42.90;;;11.53;;
19095;SDS011;9680;52.520;13.332;2024-01-10T12:08:52;32.03;;;10.73;;
19095;SDS011;9680;52.520;13.332;2024-01-10T12:11:19;39.47;;;12.13;;
19095;SDS011;9680;52.520;13.332;2024-01-10T12:13:47;40.77;;;13.00;;
19095;SDS011;9680;52.520;13.332;2024-01-10T12:16:14;46.53;;;12.63;;
19095;SDS011;9680;52.520;13.332;2024-01-10T12:18:42;43.67;;;12.23;;
19095;SDS011;9680;52.520;13.332;2024-01-10T12:21:09;38.23;;;11.10;;
19095;SDS011;9680;52.520;13.332;2024-01-10T12:23:37;46.57;;;13.00;;
19095;SDS011;9680;52.520;13.332;2024-01-10T12:26:06;35.80;;;11.30;;
19095;SDS011;9680;52.520;13.332;2024-01-10T12:28:40;37.03;;;11.50;;
19095;SDS011;9680;52.520;13.332;2024-01-10T12:31:36;33.27;;;11.20;;
19095;SDS011;9680;52.520;13.332;2024-01-10T12:34:06;40.87;;;11.97;;
19095;SDS011;9680;52.520;13.332;2024-01-10T12:36:33;43.17;;;11.87;;
19095;SDS011;9680;52.520;13.332;2024-01-10T12:39:00;44.73;;;11.67;;
19095;SDS011;9680;52.520;13.332;2024-01-10T12:41:28;37.87;;;11.13;;
19095;SDS011;9680;52.520;13.332;2024-01-10T12:43:55;41.70;;;11.47;;
19095;SDS011;9680;52.520;13.332;2024-01-10T12:46:22;38.40;;;11.77;;
19095;SDS011;9680;52.520;13.332;2024-01-10T12:48:57;37.70;;;10.87;;
19095;SDS011;9680;52.520;13.332;2024-01-10T12:51:26;37.07;;;11.17;;
19095;SDS011;9680;52.520;13.332;2024-01-10T12:53:54;33.97;;;11.73;;
19095;SDS011;9680;52.520;13.332;2024-01-10T12:56:23;48.60;;;12.50;;
19095;SDS011;9680;52.520;13.332;2024-01-10T12:58:51;44.97;;;12.00;;
19095;SDS011;9680;52.520;13.332;2024-01-10T13:01:17;39.03;;;12.67;;
19095;SDS011;9680;52.520;13.332;2024-01-10T13:03:44;49.97;;;13.50;;
19095;SDS011;9680;52.520;13.332;2024-01-10T13:06:11;43.30;;;13.20;;
19095;SDS011;9680;52.520;13.332;2024-01-10T13:08:39;50.40;;;14.50;;
19095;SDS011;9680;52.520;13.332;2024-01-10T13:11:06;40.40;;;12.73;;
19095;SDS011;9680;52.520;13.332;2024-01-10T13:13:34;38.67;;;12.57;;
19095;SDS011;9680;52.520;13.332;2024-01-10T13:16:01;41.70;;;13.13;;
19095;SDS011;9680;52.520;13.332;2024-01-10T13:18:28;38.10;;;12.20;;
19095;SDS011;9680;52.520;13.332;2024-01-10T13:20:55;44.27;;;13.10;;
19095;SDS011;9680;52.520;13.332;2024-01-10T13:23:24;44.00;;;14.00;;
19095;SDS011;9680;52.520;13.332;2024-01-10T13:25:52;46.47;;;14.17;;
19095;SDS011;9680;52.520;13.332;2024-01-10T13:28:19;49.30;;;14.00;;
19095;SDS011;9680;52.520;13.332;2024-01-10T13:30:46;44.37;;;13.97;;
19095;SDS011;9680;52.520;13.332;2024-01-10T13:33:13;37.93;;;12.90;;
19095;SDS011;9680;52.520;13.332;2024-01-10T13:35:40;38.80;;;12.77;;
19095;SDS011;9680;52.520;13.332;2024-01-10T13:38:06;45.23;;;13.83;;
19095;SDS011;9680;52.520;13.332;2024-01-10T13:40:35;36.53;;;12.33;;
19095;SDS011;9680;52.520;13.332;2024-01-10T13:43:05;44.40;;;13.10;;
19095;SDS011;9680;52.520;13.332;2024-01-10T13:45:32;44.67;;;13.77;;
19095;SDS011;9680;52.520;13.332;2024-01-10T13:47:58;44.97;;;13.50;;
19095;SDS011;9680;52.520;13.332;2024-01-10T13:50:25;48.23;;;12.93;;
19095;SDS011;9680;52.520;13.332;2024-01-10T13:52:53;45.53;;;13.80;;
19095;SDS011;9680;52.520;13.332;2024-01-10T13:55:20;45.27;;;13.73;;
19095;SDS011;9680;52.520;13.332;2024-01-10T13:57:49;43.97;;;13.23;;
19095;SDS011;9680;52.520;13.332;2024-01-10T14:00:19;44.63;;;14.27;;
19095;SDS011;9680;52.520;13.332;2024-01-10T14:02:46;52.57;;;14.90;;
19095;SDS011;9680;52.520;13.332;2024-01-10T14:05:13;36.47;;;12.10;;
19095;SDS011;9680;52.520;13.332;2024-01-10T14:07:40;41.70;;;13.43;;
19095;SDS011;9680;52.520;13.332;2024-01-10T14:10:09;38.07;;;12.47;;
19095;SDS011;9680;52.520;13.332;2024-01-10T14:12:36;35.93;;;11.63;;
19095;SDS011;9680;52.520;13.332;2024-01-10T14:15:03;49.93;;;14.33;;
19095;SDS011;9680;52.520;13.332;2024-01-10T14:17:32;42.10;;;12.23;;
19095;SDS011;9680;52.520;13.332;2024-01-10T14:19:58;42.03;;;13.13;;
19095;SDS011;9680;52.520;13.332;2024-01-10T14:22:25;40.30;;;12.70;;
19095;SDS011;9680;52.520;13.332;2024-01-10T14:24:53;36.30;;;11.57;;
19095;SDS011;9680;52.520;13.332;2024-01-10T14:27:20;49.57;;;12.23;;
19095;SDS011;9680;52.520;13.332;2024-01-10T14:29:47;40.40;;;13.20;;